Nellis Air Force Base
KLSV : now visible

Airfield :











YOU CAN JOIN US ON...

 
LOGIN :

Register | Disclaimer

   EN    FR    IT 

 









Legend :    VFR   Marginal VFR   IFR   Intensive IFR   Very Intensive IFR
Visi :
Ceiling :
>= 8 km
>= 3000ft
5 to 8 km
1000 to 3000 ft
1500m to 5 km
500 to 1000 ft
800 to 1500m
200 to 500 ft
< 800m
< 200 ft
Symbols :   Thunderstorms  Fog  Heavy snow  Heavy precipitations  Wind > 20 kt







- Airport Elevation : 1870 ft


KLSV - Nellis Air Force Base

CURRENT METAR :
  • 210955Z 16015KT 10SM CLR 16/M01 A2971 RMK AO2A SLP037 WND DATA ESTMD T01551008 $

EXPIRED METARs :
  • 210855Z 17014KT 10SM CLR 16/M01 A2972 RMK AO2A SLP043 WND DATA ESTMD T01631013 58003 $
  • 210755Z 17014KT 10SM CLR 17/M03 A2973 RMK AO2A SLP047 WND DATA ESTMD T01731027 402380126 $

TAF TAF KLSV
Valid from the 20 at 23:00 until the 22 at 05:00 UTC


202300Z 2023/2205 26015G25KT 9999 FEW100 SCT120 520009 QNH2966INS
BECMG 2103/2104 24012KT 9999 FEW100 QNH2969INS
BECMG 2112/2113 17008KT 9999 FEW250 QNH2962INS
BECMG 2120/2121 23015G25KT 9999 FEW100 SCT150 520009 QNH2941INS
BECMG 2202/2203 32009KT 9999 VCSH FEW060 BKN090 OVC120 QNH2951INS TX24/2100Z TN12/2113Z
KZLA FIR / North America



MET'MAP, your aeronautical weather chart ! - Copyright ORBIFLY December 2007 - Disclaimer

ORBIFLY MET'MAP TEAM :

Programming & Development : Alexandra Zaïnal
Concept & Development : Baudouin d'Aumeries
Co-Development & Prog : Marc-Olivier Méhu
Technical & hardware support : Manuel Goepfert

Contact : metmap@orbifly.com




SOURCES & CREDITS :

   NOAA       Earth
Advisory